Flight Track Log - Related Links

Times and Time Zones

All times are in EDT time to prevent confusion due to time zone crossing. See the UPS1122 flight status page for this flight to view local times or setup timezone preferences in your user account.

Time Position Orientation Groundspeed Altitude Reporting Facility
EDT Latitude Longitude Course Direction KTS MPH feet Rate Location/Type
Tue 03:42:25 AM 39.8730 -75.2342 75° East 137 158 300  Level FlightAware
Tue 03:42:36 AM 39.8747 -75.2258 75° East 142 163 800 2,100 Climbing FlightAware
Tue 03:42:45 AM 39.8767 -75.2175 73° East 157 181 1,000 900 Climbing FlightAware
Tue 03:42:56 AM 39.8793 -75.2071 72° East 172 198 1,100 692 Climbing FlightAware
Tue 03:43:11 AM 39.8840 -75.1909 69° East 200 230 1,300 1,714 Climbing FlightAware
Tue 03:43:24 AM 39.8882 -75.1763 69° East 205 236 1,900 3,000 Climbing FlightAware
Tue 03:43:27 AM 39.8892 -75.1724 72° East 206 237 2,100 3,000 Climbing FlightAware
Tue 03:43:32 AM 39.8903 -75.1671 75° East 205 236 2,300 3,273 Climbing FlightAware
Tue 03:43:38 AM 39.8912 -75.1595 81° East 205 236 2,700 3,600 Climbing FlightAware
Tue 03:43:42 AM 39.8913 -75.1548 88° East 204 235 2,900 2,571 Climbing FlightAware
Tue 03:43:45 AM 39.8912 -75.1512 92° East 203 234 3,000 3,000 Climbing FlightAware
Tue 03:43:50 AM 39.8905 -75.1453 99° East 206 237 3,300 2,667 Climbing FlightAware
Tue 03:43:54 AM 39.8897 -75.1404 102° East 211 243 3,400 1,579 Climbing FlightAware
Tue 03:44:09 AM 39.8849 -75.1209 108° East 232 267 3,800 2,182 Climbing FlightAware
Tue 03:44:27 AM 39.8785 -75.0958 108° East 245 282 4,600 3,000 Climbing FlightAware
Tue 03:44:41 AM 39.8741 -75.0764 106° East 246 283 5,400 3,103 Climbing FlightAware
Tue 03:44:56 AM 39.8692 -75.0544 106° East 253 291 6,100 2,903 Climbing FlightAware
Tue 03:45:12 AM 39.8641 -75.0303 105° East 258 297 6,900 2,813 Climbing FlightAware
Tue 03:45:28 AM 39.8587 -75.0066 107° East 265 305 7,600 2,903 Climbing FlightAware
Tue 03:45:43 AM 39.8535 -74.9828 106° East 271 312 8,400 3,000 Climbing FlightAware
Tue 03:45:58 AM 39.8485 -74.9585 105° East 276 318 9,100 2,710 Climbing FlightAware
Tue 03:46:14 AM 39.8433 -74.9335 105° East 282 325 9,800 2,308 Climbing FlightAware
Tue 03:46:37 AM 39.8350 -74.8942 105° East 302 348 10,600 1,472 Climbing FlightAware
Tue 03:47:07 AM 39.8217 -74.8378 107° East 340 391 11,100 1,552 Climbing FlightAware
Tue 03:47:35 AM 39.8099 -74.7808 105° East 354 407 12,100 2,167 Climbing FlightAware
Tue 03:47:43 AM 39.8093 -74.7653 93° East 355 409 12,400 2,250 Climbing FlightAware
Tue 03:47:51 AM 39.8108 -74.7473 84° East 357 411 12,700 2,500 Climbing FlightAware
Tue 03:47:55 AM 39.8125 -74.7380 77° East 358 412 12,900 2,308 Climbing FlightAware
Tue 03:48:04 AM 39.8181 -74.7203 68° East 360 414 13,200 2,400 Climbing FlightAware
Tue 03:48:10 AM 39.8234 -74.7091 58° Northeast 361 415 13,500 2,500 Climbing FlightAware
Tue 03:48:40 AM 39.8572 -74.6584 49° Northeast 370 426 14,700 2,262 Climbing FlightAware
Tue 03:49:11 AM 39.8936 -74.6079 47° Northeast 381 438 15,800 2,250 Climbing FlightAware
Tue 03:49:44 AM 39.9337 -74.5516 47° Northeast 389 448 17,100 2,286 Climbing FlightAware
Tue 03:50:14 AM 39.9714 -74.4979 47° Northeast 395 455 18,200 2,164 Climbing FlightAware
Tue 03:50:45 AM 40.0096 -74.4433 48° Northeast 401 461 19,300 2,066 Climbing FlightAware
Tue 03:51:15 AM 40.0479 -74.3886 48° Northeast 406 467 20,300 1,672 Climbing FlightAware
Tue 03:51:46 AM 40.0872 -74.3320 48° Northeast 406 467 21,000 667 Climbing FlightAware
Tue 03:52:18 AM 40.1273 -74.2742 48° Northeast 402 463 21,000  Level FlightAware
Tue 03:52:48 AM 40.1656 -74.2189 48° Northeast 401 461 21,000  Level FlightAware
Tue 03:53:19 AM 40.2035 -74.1642 48° Northeast 399 459 21,000  Level FlightAware
Tue 03:53:49 AM 40.2410 -74.1099 48° Northeast 400 460 21,000  Level FlightAware
Tue 03:54:20 AM 40.2798 -74.0535 48° Northeast 400 460 21,000  Level FlightAware
Tue 03:55:00 AM 40.3306 -73.9794 48° Northeast 399 459 21,000  Level FlightAware
Tue 03:55:31 AM 40.3672 -73.9260 48° Northeast 398 458 21,000  Level FlightAware
Tue 03:56:01 AM 40.4042 -73.8719 48° Northeast 398 458 21,000  Level FlightAware
Tue 03:56:31 AM 40.4414 -73.8174 48° Northeast 397 457 21,000  Level FlightAware
Tue 03:57:01 AM 40.4782 -73.7634 48° Northeast 397 457 21,000  Level FlightAware
Tue 03:57:32 AM 40.5158 -73.7081 48° Northeast 397 457 21,000  Level FlightAware
Tue 03:58:02 AM 40.5527 -73.6535 48° Northeast 397 457 21,000  Level FlightAware
Tue 03:58:32 AM 40.5899 -73.5984 48° Northeast 397 457 21,000  Level FlightAware
Tue 03:59:02 AM 40.6269 -73.5439 48° Northeast 396 456 21,000  Level FlightAware
Tue 03:59:32 AM 40.6640 -73.4899 48° Northeast 396 456 21,000  Level FlightAware
Tue 04:00:03 AM 40.7015 -73.4353 48° Northeast 396 456 21,000  Level FlightAware
Tue 04:00:33 AM 40.7393 -73.3801 48° Northeast 398 458 21,000  Level FlightAware
Tue 04:00:56 AM 40.7671 -73.3395 48° Northeast 398 458 21,000  Level FlightAware
Tue 04:01:07 AM 40.7821 -73.3208 43° Northeast 397 457 21,000  Level FlightAware
Tue 04:01:25 AM 40.8100 -73.2957 34° Northeast 394 453 21,000  Level FlightAware
Tue 04:01:40 AM 40.8332 -73.2807 26° Northeast 393 452 21,000  Level FlightAware
Tue 04:02:25 AM 40.9092 -73.2402 22° Northeast 392 451 21,000  Level FlightAware
Tue 04:03:12 AM 40.9888 -73.1978 22° Northeast 393 452 21,000 -189 Level FlightAware
Tue 04:04:00 AM 41.0696 -73.1542 22° Northeast 388 447 20,700 -1,468 Descending FlightAware
Tue 04:04:46 AM 41.1451 -73.1132 22° Northeast 384 442 18,700 -2,609 Descending FlightAware
Tue 04:05:32 AM 41.2190 -73.0730 22° Northeast 384 442 16,700 -2,512 Descending FlightAware
Tue 04:06:12 AM 41.2830 -73.0380 22° Northeast 377 434 15,100 -2,220 Descending FlightAware
Tue 04:07:12 AM 41.3770 -72.9870 22° Northeast 384 442 13,000 -1,260 Descending FlightAware
Tue 04:07:52 AM 41.4330 -72.9560 23° Northeast 384 442 13,000  Level FlightAware
Tue 04:08:32 AM 41.4890 -72.9260 22° Northeast 384 442 13,000 -3,196 Level FlightAware
Tue 04:09:24 AM 41.5636 -72.9228 22° Northeast 277 319 8,100 -3,643 Descending Boston Center
Tue 04:10:24 AM 41.6386 -72.9067 North 276 318 6,200 -1,835 Descending Boston Center
Tue 04:11:25 AM 41.7139 -72.8906 North 272 313 4,400 -1,587 Descending Boston Center
Tue 04:12:25 AM 41.7911 -72.8689 12° North 272 313 3,000 -843 Descending Boston Center
Tue 04:13:26 AM 41.8433 -72.8192 35° Northeast 222 255 2,700 -639 Descending Boston Center
Tue 04:14:27 AM 41.8811 -72.7692 45° Northeast 186 214 1,700 -893 Descending Boston Center
Tue 04:15:27 AM 41.9081 -72.7303 47° Northeast 147 169 900 -800 Descending Boston Center
Tue 04:17:00 AM 41.9333 -72.6833 20° North  Level FlightAware

Login

Don't have an account? Register now (free) for customized features, flight alerts, and more!